KFMH/FMH METAR and TAF weather

Enter ICAO airport designator
Station Type Date Time Source
KFMH METAR 2021/01/17 19:45 UTC NOAA

KFMH 171945Z 24014G24KT 10SM BKN050 06/M02 A2949


Station Type Date Time Source
KFMH Decoded METAR 2021/01/17 19:45 UTC NOAA

Otis Air National Guard Base, MA, United States (KFMH) 41-39N 070-31W
Jan 17, 2021 - 02:45 PM EST / 2021.01.17 1945 UTC
Wind: from the WSW (240 degrees) at 16 MPH (14 KT) gusting to 28 MPH (24 KT):0
Visibility: 10 mile(s):0
Sky conditions: mostly cloudy
Temperature: 42 F (6 C)
Dew Point: 28 F (-2 C)
Relative Humidity: 56%
Pressure (altimeter): 29.49 in. Hg (998 hPa)
ob: KFMH 171945Z 24014G24KT 10SM BKN050 06/M02 A2949
cycle: 20

Station Type Date Time Source
KFMH TAF 2021/01/17 18:40 UTC NOAA

TAF KFMH 171738Z 1718/1818 25023G37KT P6SM SCT040
FM172100 25017G32KT P6SM SCT050
FM180000 25015G25KT P6SM FEW200
FM180300 26013G22KT P6SM FEW250
FM180600 25012KT P6SM FEW120
FM181400 25013G25KT P6SM FEW200

Example: see airport list